Time,TemperatureF,DewpointF,PressureIn,WindDirection,WindDirectionDegrees,WindSpeedMPH,WindSpeedGustMPH,Humidity,HourlyPrecipIn,Conditions,Clouds,dailyrainin,SoftwareType,DateUTC
2013-01-13 00:00:00,42.6,42.1,30.14,WSW,257,0.0,0.0,98,0.00,,,0.06,meteohub,2013-01-13 05:00:00,
2013-01-13 00:03:00,42.6,42.1,30.14,WSW,257,0.0,0.0,98,0.00,,,0.06,meteohub,2013-01-13 05:03:00,
2013-01-13 00:08:00,42.6,42.1,30.14,WSW,257,0.0,0.0,98,0.00,,,0.00,meteohub,2013-01-13 05:08:00,
2013-01-13 00:13:00,42.6,42.1,30.14,WSW,256,0.0,0.0,98,0.00,,,0.00,meteohub,2013-01-13 05:13:00,
2013-01-13 00:18:00,42.6,42.1,30.15,WSW,255,0.0,0.0,98,0.00,,,0.00,meteohub,2013-01-13 05:18:00,
2013-01-13 00:23:00,42.6,42.1,30.15,WSW,255,0.0,0.0,98,0.00,,,0.00,meteohub,2013-01-13 05:23:00,
2013-01-13 00:28:00,42.6,42.1,30.14,WSW,256,0.0,0.0,98,0.00,,,0.00,meteohub,2013-01-13 05:28:00,
2013-01-13 00:33:00,42.8,42.3,30.14,WSW,256,0.0,0.0,98,0.00,,,0.00,meteohub,2013-01-13 05:33:00,
2013-01-13 00:38:00,42.8,42.3,30.13,WSW,255,0.0,0.0,98,0.00,,,0.00,meteohub,2013-01-13 05:38:00,
2013-01-13 00:43:00,42.8,42.3,30.12,WSW,255,0.0,0.0,98,0.00,,,0.00,meteohub,2013-01-13 05:43:00,
2013-01-13 00:48:00,42.6,42.1,30.13,WSW,255,0.0,0.0,98,0.00,,,0.00,meteohub,2013-01-13 05:48:00,
2013-01-13 00:53:00,42.8,42.3,30.13,WSW,256,0.0,0.0,98,0.00,,,0.00,meteohub,2013-01-13 05:53:00,
2013-01-13 00:58:00,42.8,42.3,30.13,WSW,256,0.0,0.0,98,0.00,,,0.00,meteohub,2013-01-13 05:58:00,
2013-01-13 01:03:00,42.8,42.3,30.13,WSW,256,0.0,0.0,98,0.00,,,0.00,meteohub,2013-01-13 06:03:00,
2013-01-13 01:08:00,42.6,42.1,30.13,WSW,256,0.0,0.0,98,0.00,,,0.00,meteohub,2013-01-13 06:08:00,
2013-01-13 01:13:00,42.8,42.3,30.13,WSW,256,0.0,0.0,98,0.00,,,0.00,meteohub,2013-01-13 06:13:00,
2013-01-13 01:18:00,42.8,42.3,30.13,WSW,256,0.0,0.0,98,0.00,,,0.00,meteohub,2013-01-13 06:18:00,
2013-01-13 01:23:00,42.8,42.3,30.13,WSW,256,0.0,0.0,98,0.00,,,0.00,meteohub,2013-01-13 06:23:00,
2013-01-13 01:28:00,42.8,42.3,30.14,WSW,255,0.0,0.0,98,0.00,,,0.00,meteohub,2013-01-13 06:28:00,
2013-01-13 01:33:00,42.8,42.3,30.15,WSW,256,0.0,0.0,98,0.00,,,0.00,meteohub,2013-01-13 06:33:00,
2013-01-13 01:38:00,42.8,42.3,30.14,WSW,255,0.0,0.0,98,0.00,,,0.00,meteohub,2013-01-13 06:38:00,
2013-01-13 01:43:00,42.8,42.3,30.15,WSW,256,0.0,0.0,98,0.00,,,0.00,meteohub,2013-01-13 06:43:00,
2013-01-13 01:48:00,42.8,42.3,30.14,WSW,256,0.0,0.0,98,0.00,,,0.00,meteohub,2013-01-13 06:48:00,
2013-01-13 01:53:00,42.8,42.3,30.13,WSW,255,0.0,0.0,98,0.00,,,0.00,meteohub,2013-01-13 06:53:00,
2013-01-13 01:58:00,43.0,42.4,30.13,WSW,255,0.0,0.0,98,0.00,,,0.00,meteohub,2013-01-13 06:58:00,
2013-01-13 02:03:00,43.0,42.4,30.13,WSW,255,0.0,0.0,98,0.00,,,0.00,meteohub,2013-01-13 07:03:00,
2013-01-13 02:08:00,43.0,42.4,30.13,WSW,255,0.0,0.0,98,0.00,,,0.00,meteohub,2013-01-13 07:08:00,
2013-01-13 02:13:00,43.0,42.4,30.14,WSW,256,0.0,0.0,98,0.00,,,0.00,meteohub,2013-01-13 07:13:00,
2013-01-13 02:18:00,42.8,42.3,30.14,WSW,255,0.0,0.0,98,0.00,,,0.00,meteohub,2013-01-13 07:18:00,
2013-01-13 02:23:00,43.0,42.4,30.13,WSW,256,0.0,0.0,98,0.00,,,0.00,meteohub,2013-01-13 07:23:00,
2013-01-13 02:28:00,43.0,42.4,30.14,WSW,255,0.0,0.0,98,0.00,,,0.00,meteohub,2013-01-13 07:28:00,
2013-01-13 02:33:00,43.0,42.4,30.13,WSW,256,0.0,0.0,98,0.00,,,0.00,meteohub,2013-01-13 07:33:00,
2013-01-13 02:38:00,42.8,42.3,30.13,WSW,255,0.0,0.0,98,0.00,,,0.00,meteohub,2013-01-13 07:38:00,
2013-01-13 02:43:00,42.8,42.3,30.12,WSW,255,0.0,0.0,98,0.00,,,0.00,meteohub,2013-01-13 07:43:00,
2013-01-13 02:48:00,42.6,42.1,30.12,WSW,255,0.0,0.0,98,0.00,,,0.00,meteohub,2013-01-13 07:48:00,
2013-01-13 02:53:00,42.6,42.1,30.12,WSW,255,0.0,0.0,98,0.00,,,0.00,meteohub,2013-01-13 07:53:00,
2013-01-13 02:58:00,42.6,42.1,30.11,WSW,255,0.0,0.0,98,0.00,,,0.00,meteohub,2013-01-13 07:58:00,
2013-01-13 03:03:00,42.4,41.9,30.11,WSW,255,0.0,0.0,98,0.00,,,0.00,meteohub,2013-01-13 08:03:00,
2013-01-13 03:08:00,42.4,41.9,30.12,WSW,255,0.0,0.0,98,0.00,,,0.00,meteohub,2013-01-13 08:08:00,
2013-01-13 03:13:00,42.4,41.9,30.12,WSW,256,0.0,0.0,98,0.00,,,0.00,meteohub,2013-01-13 08:13:00,
2013-01-13 03:18:00,42.3,41.7,30.10,NW,311,0.0,0.0,98,0.00,,,0.00,meteohub,2013-01-13 08:18:00,
2013-01-13 03:23:00,42.3,41.7,30.10,East,88,0.0,0.0,98,0.00,,,0.00,meteohub,2013-01-13 08:23:00,
2013-01-13 03:28:00,42.1,41.5,30.10,East,88,0.0,3.0,98,0.00,,,0.00,meteohub,2013-01-13 08:28:00,
2013-01-13 03:33:00,42.1,41.5,30.11,WSW,248,0.0,3.0,98,0.00,,,0.00,meteohub,2013-01-13 08:33:00,
2013-01-13 03:38:00,42.1,41.5,30.12,WSW,255,0.0,2.0,98,0.00,,,0.00,meteohub,2013-01-13 08:38:00,
2013-01-13 03:43:00,42.1,41.5,30.11,WSW,255,0.0,2.0,98,0.00,,,0.00,meteohub,2013-01-13 08:43:00,
2013-01-13 03:48:00,42.1,41.5,30.11,WSW,255,0.0,2.0,98,0.00,,,0.00,meteohub,2013-01-13 08:48:00,
2013-01-13 03:53:00,42.1,41.5,30.11,WSW,255,0.0,2.0,98,0.00,,,0.00,meteohub,2013-01-13 08:53:00,
2013-01-13 03:58:00,42.1,41.5,30.11,WSW,255,0.0,1.0,98,0.00,,,0.00,meteohub,2013-01-13 08:58:00,
2013-01-13 04:03:00,42.1,41.5,30.12,WSW,252,0.0,0.0,98,0.00,,,0.00,meteohub,2013-01-13 09:03:00,
2013-01-13 04:08:00,42.1,41.5,30.12,WSW,255,0.0,0.0,98,0.00,,,0.00,meteohub,2013-01-13 09:08:00,
2013-01-13 04:13:00,42.1,41.5,30.12,WSW,255,0.0,0.0,98,0.00,,,0.00,meteohub,2013-01-13 09:13:00,
2013-01-13 04:18:00,42.1,41.5,30.12,WSW,255,0.0,0.0,98,0.00,,,0.00,meteohub,2013-01-13 09:18:00,
2013-01-13 04:23:00,42.1,41.5,30.11,WSW,255,0.0,0.0,98,0.00,,,0.00,meteohub,2013-01-13 09:23:00,
2013-01-13 04:28:00,41.9,41.4,30.11,WSW,255,0.0,0.0,98,0.00,,,0.00,meteohub,2013-01-13 09:28:00,
2013-01-13 04:34:00,41.9,41.4,30.11,WSW,255,0.0,0.0,98,0.00,,,0.00,meteohub,2013-01-13 09:34:00,
2013-01-13 04:39:00,41.9,41.4,30.11,WSW,255,0.0,0.0,98,0.00,,,0.00,meteohub,2013-01-13 09:39:00,
2013-01-13 04:44:00,41.9,41.4,30.11,WSW,255,0.0,0.0,98,0.00,,,0.00,meteohub,2013-01-13 09:44:00,
2013-01-13 04:49:00,42.1,41.5,30.11,WSW,255,0.0,0.0,98,0.00,,,0.00,meteohub,2013-01-13 09:49:00,
2013-01-13 04:54:00,42.1,41.5,30.11,WSW,255,0.0,0.0,98,0.00,,,0.00,meteohub,2013-01-13 09:54:00,
2013-01-13 04:59:00,42.1,41.5,30.12,WSW,255,0.0,0.0,98,0.00,,,0.00,meteohub,2013-01-13 09:59:00,
2013-01-13 05:04:00,41.9,41.4,30.11,WSW,255,0.0,0.0,98,0.00,,,0.00,meteohub,2013-01-13 10:04:00,
2013-01-13 05:09:00,42.1,41.5,30.11,WSW,255,0.0,0.0,98,0.00,,,0.00,meteohub,2013-01-13 10:09:00,
2013-01-13 05:14:00,42.1,41.5,30.11,WSW,255,0.0,0.0,98,0.00,,,0.00,meteohub,2013-01-13 10:14:00,
2013-01-13 05:19:00,42.1,41.5,30.10,WSW,255,0.0,0.0,98,0.00,,,0.00,meteohub,2013-01-13 10:19:00,
2013-01-13 05:24:00,42.1,41.5,30.10,WSW,255,0.0,0.0,98,0.00,,,0.00,meteohub,2013-01-13 10:24:00,
2013-01-13 05:29:00,42.1,41.5,30.10,WSW,255,0.0,0.0,98,0.00,,,0.00,meteohub,2013-01-13 10:29:00,
2013-01-13 05:34:00,42.1,41.5,30.10,WSW,255,0.0,0.0,98,0.00,,,0.00,meteohub,2013-01-13 10:34:00,
2013-01-13 05:39:00,42.1,41.5,30.10,WSW,255,0.0,0.0,98,0.00,,,0.00,meteohub,2013-01-13 10:39:00,
2013-01-13 05:44:00,41.9,41.4,30.10,WSW,255,0.0,0.0,98,0.00,,,0.00,meteohub,2013-01-13 10:44:00,
2013-01-13 05:49:00,42.1,41.5,30.11,WSW,255,0.0,0.0,98,0.00,,,0.00,meteohub,2013-01-13 10:49:00,
2013-01-13 05:54:00,41.9,41.4,30.10,WSW,255,0.0,0.0,98,0.00,,,0.00,meteohub,2013-01-13 10:54:00,
2013-01-13 05:59:00,42.1,41.5,30.10,WSW,255,0.0,0.0,98,0.00,,,0.00,meteohub,2013-01-13 10:59:00,
2013-01-13 06:04:00,42.1,41.5,30.11,WSW,255,0.0,0.0,98,0.00,,,0.00,meteohub,2013-01-13 11:04:00,
2013-01-13 06:09:00,42.1,41.5,30.11,WSW,255,0.0,0.0,98,0.00,,,0.00,meteohub,2013-01-13 11:09:00,
2013-01-13 06:14:00,41.9,41.4,30.11,WSW,255,0.0,0.0,98,0.00,,,0.00,meteohub,2013-01-13 11:14:00,
2013-01-13 06:19:00,42.1,41.5,30.10,WSW,255,0.0,0.0,98,0.00,,,0.00,meteohub,2013-01-13 11:19:00,
2013-01-13 06:24:00,42.1,41.5,30.10,WSW,255,0.0,0.0,98,0.00,,,0.00,meteohub,2013-01-13 11:24:00,
2013-01-13 06:29:00,42.1,41.5,30.11,WSW,255,0.0,0.0,98,0.01,,,0.01,meteohub,2013-01-13 11:29:00,
2013-01-13 06:34:00,41.9,41.4,30.11,WSW,255,0.0,0.0,98,0.01,,,0.01,meteohub,2013-01-13 11:34:00,
2013-01-13 06:39:00,42.1,41.5,30.11,WSW,255,0.0,0.0,98,0.01,,,0.01,meteohub,2013-01-13 11:39:00,
2013-01-13 06:44:00,42.1,41.5,30.11,WSW,255,0.0,0.0,98,0.01,,,0.01,meteohub,2013-01-13 11:44:00,
2013-01-13 06:49:00,42.1,41.5,30.11,WSW,255,0.0,0.0,98,0.01,,,0.01,meteohub,2013-01-13 11:49:00,
2013-01-13 06:54:00,42.1,41.5,30.11,WSW,255,0.0,0.0,98,0.01,,,0.01,meteohub,2013-01-13 11:54:00,
2013-01-13 06:59:00,42.1,41.5,30.11,WSW,255,0.0,0.0,98,0.01,,,0.01,meteohub,2013-01-13 11:59:00,
2013-01-13 07:04:00,42.1,41.5,30.11,WSW,255,0.0,0.0,98,0.01,,,0.01,meteohub,2013-01-13 12:04:00,
2013-01-13 07:09:00,42.1,41.5,30.11,WSW,255,0.0,0.0,98,0.01,,,0.01,meteohub,2013-01-13 12:09:00,
2013-01-13 07:14:00,42.1,41.5,30.10,WSW,255,0.0,0.0,98,0.01,,,0.01,meteohub,2013-01-13 12:14:00,
2013-01-13 07:19:00,42.1,41.5,30.11,WSW,255,0.0,0.0,98,0.01,,,0.01,meteohub,2013-01-13 12:19:00,
2013-01-13 07:24:00,42.1,41.5,30.12,WSW,255,0.0,0.0,98,0.00,,,0.01,meteohub,2013-01-13 12:24:00,
2013-01-13 07:29:00,42.1,41.5,30.12,WSW,255,0.0,0.0,98,0.00,,,0.01,meteohub,2013-01-13 12:29:00,
2013-01-13 07:34:00,42.1,41.5,30.11,WSW,255,0.0,0.0,98,0.00,,,0.01,meteohub,2013-01-13 12:34:00,
2013-01-13 07:39:00,42.1,41.5,30.12,WSW,255,0.0,0.0,98,0.00,,,0.01,meteohub,2013-01-13 12:39:00,
2013-01-13 07:44:00,42.1,41.5,30.12,WSW,255,0.0,0.0,98,0.00,,,0.01,meteohub,2013-01-13 12:44:00,
2013-01-13 07:49:00,42.1,41.5,30.12,WSW,255,0.0,0.0,98,0.00,,,0.01,meteohub,2013-01-13 12:49:00,
2013-01-13 07:54:00,42.1,41.5,30.13,WSW,255,0.0,0.0,98,0.00,,,0.01,meteohub,2013-01-13 12:54:00,
2013-01-13 07:59:00,42.1,41.5,30.13,WSW,255,0.0,0.0,98,0.00,,,0.01,meteohub,2013-01-13 12:59:00,
2013-01-13 08:04:00,42.1,41.5,30.13,WSW,255,0.0,0.0,98,0.00,,,0.01,meteohub,2013-01-13 13:04:00,
2013-01-13 08:09:00,42.1,41.5,30.13,WSW,255,0.0,0.0,98,0.00,,,0.01,meteohub,2013-01-13 13:09:00,
2013-01-13 08:14:00,42.1,41.5,30.13,WSW,255,0.0,0.0,98,0.00,,,0.01,meteohub,2013-01-13 13:14:00,
2013-01-13 08:19:00,42.1,41.5,30.13,WSW,255,0.0,0.0,98,0.00,,,0.01,meteohub,2013-01-13 13:19:00,
2013-01-13 08:24:00,42.3,41.7,30.12,WSW,255,0.0,1.0,98,0.00,,,0.01,meteohub,2013-01-13 13:24:00,
2013-01-13 08:29:00,42.3,41.7,30.13,WSW,255,0.0,1.0,98,0.00,,,0.01,meteohub,2013-01-13 13:29:00,
2013-01-13 08:34:00,42.3,41.7,30.13,WSW,255,0.0,1.0,98,0.00,,,0.01,meteohub,2013-01-13 13:34:00,
2013-01-13 08:39:00,42.4,41.9,30.13,WSW,255,1.0,0.0,98,0.00,,,0.01,meteohub,2013-01-13 13:39:00,
2013-01-13 08:44:00,42.4,41.9,30.13,East,91,0.0,0.0,98,0.00,,,0.01,meteohub,2013-01-13 13:44:00,
2013-01-13 08:49:00,42.6,42.1,30.13,East,92,0.0,1.0,98,0.00,,,0.01,meteohub,2013-01-13 13:49:00,
2013-01-13 08:54:00,42.6,42.1,30.13,East,92,0.0,1.0,98,0.00,,,0.01,meteohub,2013-01-13 13:54:00,
2013-01-13 08:59:00,42.6,42.1,30.13,East,92,0.0,1.0,98,0.00,,,0.01,meteohub,2013-01-13 13:59:00,
2013-01-13 09:04:00,42.6,42.1,30.14,East,92,0.0,1.0,98,0.00,,,0.01,meteohub,2013-01-13 14:04:00,
2013-01-13 09:09:00,42.8,42.3,30.14,East,92,0.0,1.0,98,0.00,,,0.01,meteohub,2013-01-13 14:09:00,
2013-01-13 09:14:00,42.8,42.3,30.14,East,91,0.0,0.0,98,0.00,,,0.01,meteohub,2013-01-13 14:14:00,
2013-01-13 09:19:00,43.0,42.4,30.14,East,91,0.0,0.0,98,0.00,,,0.01,meteohub,2013-01-13 14:19:00,
2013-01-13 09:24:00,43.2,42.6,30.14,East,92,0.0,1.0,98,0.00,,,0.01,meteohub,2013-01-13 14:24:00,
2013-01-13 09:29:00,43.2,42.6,30.14,East,79,1.0,1.0,98,0.00,,,0.01,meteohub,2013-01-13 14:29:00,
2013-01-13 09:34:00,43.3,42.8,30.14,East,79,0.0,2.0,98,0.00,,,0.01,meteohub,2013-01-13 14:34:00,
2013-01-13 09:39:00,43.3,42.8,30.14,East,79,0.0,2.0,98,0.00,,,0.01,meteohub,2013-01-13 14:39:00,
2013-01-13 09:44:00,43.5,43.0,30.14,WSW,255,3.0,3.0,98,0.00,,,0.01,meteohub,2013-01-13 14:44:00,
2013-01-13 09:49:00,43.5,43.0,30.14,WSW,258,0.0,3.0,98,0.00,,,0.01,meteohub,2013-01-13 14:49:00,
2013-01-13 09:54:00,43.7,43.2,30.14,East,85,1.0,3.0,98,0.00,,,0.01,meteohub,2013-01-13 14:54:00,
2013-01-13 09:59:00,43.9,43.3,30.14,WNW,288,0.0,3.0,98,0.00,,,0.01,meteohub,2013-01-13 14:59:00,
2013-01-13 10:04:00,43.9,43.3,30.14,SW,225,0.0,1.0,98,0.00,,,0.01,meteohub,2013-01-13 15:04:00,
2013-01-13 10:09:00,43.9,43.3,30.14,East,84,0.0,1.0,98,0.00,,,0.01,meteohub,2013-01-13 15:09:00,
2013-01-13 10:14:00,43.9,43.3,30.14,East,85,0.0,0.0,98,0.00,,,0.01,meteohub,2013-01-13 15:14:00,
2013-01-13 10:19:00,43.9,43.3,30.14,East,82,0.0,0.0,98,0.00,,,0.01,meteohub,2013-01-13 15:19:00,
2013-01-13 10:24:00,43.9,43.3,30.14,East,89,0.0,1.0,98,0.00,,,0.01,meteohub,2013-01-13 15:24:00,
2013-01-13 10:29:00,43.9,43.3,30.14,East,86,0.0,1.0,98,0.00,,,0.01,meteohub,2013-01-13 15:29:00,
2013-01-13 10:34:00,43.9,43.3,30.14,East,86,1.0,1.0,98,0.00,,,0.01,meteohub,2013-01-13 15:34:00,
2013-01-13 10:39:00,43.9,43.3,30.15,East,86,0.0,1.0,98,0.00,,,0.01,meteohub,2013-01-13 15:39:00,
2013-01-13 10:44:00,44.1,43.5,30.14,East,84,0.0,1.0,98,0.00,,,0.01,meteohub,2013-01-13 15:44:00,
2013-01-13 10:49:00,44.1,43.5,30.14,East,86,0.0,1.0,98,0.00,,,0.01,meteohub,2013-01-13 15:49:00,
2013-01-13 10:54:00,44.1,43.5,30.14,East,84,0.0,0.0,98,0.00,,,0.01,meteohub,2013-01-13 15:54:00,
2013-01-13 10:59:00,44.1,43.5,30.13,West,259,1.0,2.0,98,0.00,,,0.01,meteohub,2013-01-13 15:59:00,
2013-01-13 11:04:00,44.2,43.7,30.13,East,97,0.0,2.0,98,0.00,,,0.01,meteohub,2013-01-13 16:04:00,
2013-01-13 11:09:00,44.4,43.9,30.13,East,98,0.0,2.0,98,0.00,,,0.01,meteohub,2013-01-13 16:09:00,
2013-01-13 11:14:00,44.4,43.9,30.13,East,101,0.0,1.0,98,0.00,,,0.01,meteohub,2013-01-13 16:14:00,
2013-01-13 11:19:00,44.6,44.1,30.12,West,265,0.0,1.0,98,0.00,,,0.01,meteohub,2013-01-13 16:19:00,
2013-01-13 11:24:00,44.6,44.1,30.13,WSW,245,0.0,1.0,98,0.00,,,0.01,meteohub,2013-01-13 16:24:00,
2013-01-13 11:29:00,44.6,44.1,30.13,WSW,257,0.0,1.0,98,0.00,,,0.01,meteohub,2013-01-13 16:29:00,
2013-01-13 11:34:00,44.8,44.2,30.12,WSW,257,0.0,2.0,98,0.00,,,0.01,meteohub,2013-01-13 16:34:00,
2013-01-13 11:39:00,44.8,44.2,30.12,WSW,257,0.0,2.0,98,0.00,,,0.01,meteohub,2013-01-13 16:39:00,
2013-01-13 11:44:00,44.8,44.2,30.12,WSW,257,0.0,2.0,98,0.00,,,0.01,meteohub,2013-01-13 16:44:00,
2013-01-13 11:49:00,44.8,44.2,30.11,West,265,0.0,1.0,98,0.00,,,0.01,meteohub,2013-01-13 16:49:00,
2013-01-13 11:55:00,44.8,44.2,30.11,ENE,78,0.0,1.0,98,0.00,,,0.01,meteohub,2013-01-13 16:55:00,
2013-01-13 12:00:00,44.8,44.2,30.11,ENE,77,0.0,1.0,98,0.00,,,0.01,meteohub,2013-01-13 17:00:00,
2013-01-13 12:05:00,45.0,44.4,30.10,WSW,257,0.0,0.0,98,0.00,,,0.01,meteohub,2013-01-13 17:05:00,
2013-01-13 12:10:00,44.8,44.2,30.10,WSW,251,0.0,0.0,98,0.00,,,0.01,meteohub,2013-01-13 17:10:00,
2013-01-13 12:15:00,44.8,44.2,30.11,WSW,245,0.0,0.0,98,0.00,,,0.01,meteohub,2013-01-13 17:15:00,
2013-01-13 12:20:00,45.0,44.4,30.10,WSW,239,0.0,0.0,98,0.00,,,0.01,meteohub,2013-01-13 17:20:00,
2013-01-13 12:25:00,45.1,44.6,30.10,West,271,0.0,0.0,98,0.00,,,0.01,meteohub,2013-01-13 17:25:00,
2013-01-13 12:30:00,45.1,44.6,30.10,WSW,242,0.0,0.0,98,0.00,,,0.01,meteohub,2013-01-13 17:30:00,
2013-01-13 12:35:00,45.1,44.6,30.10,WSW,242,0.0,1.0,98,0.00,,,0.01,meteohub,2013-01-13 17:35:00,
2013-01-13 12:40:00,45.1,44.6,30.10,WSW,243,0.0,1.0,98,0.00,,,0.01,meteohub,2013-01-13 17:40:00,
2013-01-13 12:45:00,45.3,45.1,30.09,WSW,243,0.0,1.0,99,0.00,,,0.01,meteohub,2013-01-13 17:45:00,
2013-01-13 12:50:00,45.3,45.1,30.09,WSW,243,0.0,0.0,99,0.00,,,0.01,meteohub,2013-01-13 17:50:00,
2013-01-13 12:55:00,45.3,45.1,30.09,WSW,243,0.0,0.0,99,0.00,,,0.01,meteohub,2013-01-13 17:55:00,
2013-01-13 13:00:00,45.3,44.8,30.09,WSW,243,0.0,0.0,98,0.00,,,0.01,meteohub,2013-01-13 18:00:00,
2013-01-13 13:05:00,45.3,44.8,30.09,WSW,243,0.0,0.0,98,0.00,,,0.01,meteohub,2013-01-13 18:05:00,
2013-01-13 13:10:00,45.3,44.8,30.08,East,82,0.0,3.0,98,0.00,,,0.01,meteohub,2013-01-13 18:10:00,
2013-01-13 13:15:00,45.5,45.3,30.07,East,82,0.0,3.0,99,0.00,,,0.01,meteohub,2013-01-13 18:15:00,
2013-01-13 13:20:00,45.5,45.0,30.07,East,82,0.0,3.0,98,0.00,,,0.01,meteohub,2013-01-13 18:20:00,
2013-01-13 13:25:00,45.5,45.3,30.06,ENE,77,1.0,1.0,99,0.00,,,0.01,meteohub,2013-01-13 18:25:00,
2013-01-13 13:30:00,45.7,45.1,30.06,East,79,0.0,2.0,98,0.00,,,0.01,meteohub,2013-01-13 18:30:00,
2013-01-13 13:35:00,45.7,45.5,30.06,West,271,0.0,2.0,99,0.00,,,0.01,meteohub,2013-01-13 18:35:00,
2013-01-13 13:40:00,45.7,45.5,30.06,ENE,76,0.0,1.0,99,0.00,,,0.01,meteohub,2013-01-13 18:40:00,
2013-01-13 13:45:00,45.7,45.5,30.06,West,259,0.0,2.0,99,0.00,,,0.01,meteohub,2013-01-13 18:45:00,
2013-01-13 13:50:00,45.7,45.1,30.06,WSW,257,0.0,2.0,98,0.00,,,0.01,meteohub,2013-01-13 18:50:00,
2013-01-13 13:55:00,45.7,45.5,30.06,West,259,0.0,2.0,99,0.00,,,0.01,meteohub,2013-01-13 18:55:00,
2013-01-13 14:00:00,45.7,45.1,30.06,East,101,0.0,1.0,98,0.00,,,0.01,meteohub,2013-01-13 19:00:00,
2013-01-13 14:05:00,45.7,45.1,30.06,East,94,0.0,0.0,98,0.00,,,0.01,meteohub,2013-01-13 19:05:00,
2013-01-13 14:10:00,45.5,45.0,30.06,East,93,0.0,1.0,98,0.00,,,0.01,meteohub,2013-01-13 19:10:00,
2013-01-13 14:15:00,45.3,44.8,30.06,East,94,0.0,1.0,98,0.00,,,0.01,meteohub,2013-01-13 19:15:00,
2013-01-13 14:20:00,45.1,44.6,30.06,East,93,0.0,1.0,98,0.00,,,0.01,meteohub,2013-01-13 19:20:00,
2013-01-13 14:25:00,45.0,44.4,30.06,East,94,0.0,1.0,98,0.00,,,0.01,meteohub,2013-01-13 19:25:00,
2013-01-13 14:30:00,45.0,44.4,30.06,East,94,0.0,1.0,98,0.00,,,0.01,meteohub,2013-01-13 19:30:00,
2013-01-13 14:35:00,44.8,44.2,30.06,East,92,0.0,0.0,98,0.00,,,0.01,meteohub,2013-01-13 19:35:00,
2013-01-13 14:40:00,44.6,44.1,30.06,East,92,0.0,0.0,98,0.00,,,0.01,meteohub,2013-01-13 19:40:00,
2013-01-13 14:45:00,44.2,43.7,30.07,East,92,0.0,0.0,98,0.00,,,0.01,meteohub,2013-01-13 19:45:00,
2013-01-13 14:50:00,44.2,43.7,30.06,East,92,0.0,0.0,98,0.00,,,0.01,meteohub,2013-01-13 19:50:00,
2013-01-13 14:55:00,44.2,43.7,30.06,East,92,0.0,0.0,98,0.00,,,0.01,meteohub,2013-01-13 19:55:00,
2013-01-13 15:00:00,44.4,43.9,30.07,East,91,0.0,0.0,98,0.00,,,0.01,meteohub,2013-01-13 20:00:00,
2013-01-13 15:05:00,44.4,43.9,30.07,East,92,0.0,0.0,98,0.00,,,0.01,meteohub,2013-01-13 20:05:00,
2013-01-13 15:10:00,44.4,43.9,30.06,East,92,0.0,0.0,98,0.00,,,0.01,meteohub,2013-01-13 20:10:00,
2013-01-13 15:15:00,44.4,43.9,30.06,East,92,0.0,0.0,98,0.00,,,0.01,meteohub,2013-01-13 20:15:00,
2013-01-13 15:20:00,44.4,43.9,30.06,East,91,0.0,0.0,98,0.00,,,0.01,meteohub,2013-01-13 20:20:00,
2013-01-13 15:25:00,44.4,43.9,30.06,East,92,0.0,0.0,98,0.00,,,0.01,meteohub,2013-01-13 20:25:00,
2013-01-13 15:30:00,44.4,43.9,30.06,East,91,0.0,0.0,98,0.00,,,0.01,meteohub,2013-01-13 20:30:00,
2013-01-13 15:35:00,44.4,43.9,30.05,East,92,0.0,0.0,98,0.00,,,0.01,meteohub,2013-01-13 20:35:00,
2013-01-13 15:40:00,44.4,43.9,30.06,East,92,0.0,0.0,98,0.00,,,0.01,meteohub,2013-01-13 20:40:00,
2013-01-13 15:45:00,44.4,43.9,30.06,East,92,0.0,0.0,98,0.00,,,0.01,meteohub,2013-01-13 20:45:00,
2013-01-13 15:50:00,44.4,43.9,30.05,East,92,0.0,0.0,98,0.00,,,0.01,meteohub,2013-01-13 20:50:00,
2013-01-13 15:55:00,44.4,43.9,30.05,East,92,0.0,0.0,98,0.00,,,0.01,meteohub,2013-01-13 20:55:00,
2013-01-13 16:00:00,44.6,44.1,30.05,East,91,0.0,0.0,98,0.00,,,0.01,meteohub,2013-01-13 21:00:00,
2013-01-13 16:05:00,44.6,44.1,30.05,East,92,0.0,0.0,98,0.00,,,0.01,meteohub,2013-01-13 21:05:00,
2013-01-13 16:10:00,44.6,44.1,30.05,East,92,0.0,0.0,98,0.00,,,0.01,meteohub,2013-01-13 21:10:00,
2013-01-13 16:15:00,44.4,43.9,30.05,East,92,0.0,0.0,98,0.00,,,0.01,meteohub,2013-01-13 21:15:00,
2013-01-13 16:20:00,44.4,43.9,30.06,East,92,0.0,0.0,98,0.00,,,0.01,meteohub,2013-01-13 21:20:00,
2013-01-13 16:25:00,44.4,43.9,30.04,East,82,0.0,0.0,98,0.00,,,0.01,meteohub,2013-01-13 21:25:00,
2013-01-13 16:30:00,44.4,43.9,30.04,East,82,0.0,0.0,98,0.00,,,0.01,meteohub,2013-01-13 21:30:00,
2013-01-13 16:35:00,44.2,43.7,30.04,East,82,0.0,0.0,98,0.00,,,0.01,meteohub,2013-01-13 21:35:00,
2013-01-13 16:40:00,44.2,43.7,30.05,East,82,0.0,0.0,98,0.00,,,0.01,meteohub,2013-01-13 21:40:00,
2013-01-13 16:45:00,44.2,43.7,30.04,East,82,0.0,0.0,98,0.00,,,0.01,meteohub,2013-01-13 21:45:00,
2013-01-13 16:50:00,44.2,43.7,30.04,East,83,0.0,0.0,98,0.00,,,0.01,meteohub,2013-01-13 21:50:00,
2013-01-13 16:55:00,44.2,43.7,30.03,East,83,0.0,0.0,98,0.00,,,0.01,meteohub,2013-01-13 21:55:00,
2013-01-13 17:00:00,44.2,43.7,30.04,East,82,0.0,0.0,98,0.00,,,0.01,meteohub,2013-01-13 22:00:00,
2013-01-13 17:05:00,44.2,43.7,30.04,East,82,0.0,0.0,98,0.00,,,0.01,meteohub,2013-01-13 22:05:00,
2013-01-13 17:10:00,44.2,43.7,30.03,East,82,0.0,0.0,98,0.00,,,0.01,meteohub,2013-01-13 22:10:00,
2013-01-13 17:15:00,44.2,43.7,30.04,East,82,0.0,0.0,98,0.00,,,0.01,meteohub,2013-01-13 22:15:00,
2013-01-13 17:20:00,44.2,43.7,30.04,East,82,0.0,0.0,98,0.00,,,0.01,meteohub,2013-01-13 22:20:00,
2013-01-13 17:26:00,44.2,43.7,30.05,East,82,0.0,0.0,98,0.00,,,0.01,meteohub,2013-01-13 22:26:00,
2013-01-13 17:31:00,44.4,43.9,30.04,East,82,0.0,0.0,98,0.00,,,0.01,meteohub,2013-01-13 22:31:00,
2013-01-13 17:36:00,44.4,43.9,30.04,East,82,0.0,0.0,98,0.00,,,0.01,meteohub,2013-01-13 22:36:00,
2013-01-13 17:41:00,44.4,43.9,30.03,East,82,0.0,0.0,98,0.00,,,0.01,meteohub,2013-01-13 22:41:00,
2013-01-13 17:46:00,44.4,44.2,30.03,East,83,0.0,0.0,99,0.00,,,0.01,meteohub,2013-01-13 22:46:00,
2013-01-13 17:51:00,44.4,44.2,30.03,East,82,0.0,0.0,99,0.00,,,0.01,meteohub,2013-01-13 22:51:00,
2013-01-13 17:56:00,44.4,44.2,30.04,East,82,0.0,0.0,99,0.00,,,0.01,meteohub,2013-01-13 22:56:00,
2013-01-13 18:01:00,44.8,44.6,30.04,East,82,0.0,0.0,99,0.00,,,0.01,meteohub,2013-01-13 23:01:00,
2013-01-13 18:06:00,44.8,44.6,30.02,East,84,0.0,0.0,99,0.00,,,0.01,meteohub,2013-01-13 23:06:00,
2013-01-13 18:11:00,45.0,44.8,30.01,West,276,0.0,1.0,99,0.00,,,0.01,meteohub,2013-01-13 23:11:00,
2013-01-13 18:16:00,45.1,45.0,30.02,WSW,255,0.0,1.0,99,0.00,,,0.01,meteohub,2013-01-13 23:16:00,
2013-01-13 18:21:00,45.3,45.1,30.02,West,262,0.0,2.0,99,0.00,,,0.01,meteohub,2013-01-13 23:21:00,
2013-01-13 18:26:00,45.3,45.1,30.01,East,89,0.0,2.0,99,0.00,,,0.01,meteohub,2013-01-13 23:26:00,
2013-01-13 18:31:00,45.7,45.5,30.02,West,271,0.0,2.0,99,0.00,,,0.01,meteohub,2013-01-13 23:31:00,
2013-01-13 18:36:00,45.7,45.5,30.03,WSW,253,1.0,1.0,99,0.00,,,0.01,meteohub,2013-01-13 23:36:00,
2013-01-13 18:41:00,45.9,45.7,30.04,West,266,0.0,1.0,99,0.00,,,0.01,meteohub,2013-01-13 23:41:00,
2013-01-13 18:46:00,46.0,45.9,30.03,SW,224,0.0,2.0,99,0.00,,,0.01,meteohub,2013-01-13 23:46:00,
2013-01-13 18:51:00,46.0,45.9,30.02,East,82,0.0,2.0,99,0.00,,,0.01,meteohub,2013-01-13 23:51:00,
2013-01-13 18:56:00,46.0,45.9,30.02,East,80,0.0,2.0,99,0.00,,,0.01,meteohub,2013-01-13 23:56:00,
2013-01-13 19:01:00,46.0,45.9,30.03,West,266,1.0,0.0,99,0.00,,,0.01,meteohub,2013-01-14 00:01:00,
2013-01-13 19:06:00,46.2,46.0,30.03,West,266,0.0,1.0,99,0.00,,,0.01,meteohub,2013-01-14 00:06:00,
2013-01-13 19:11:00,46.2,46.0,30.03,West,266,0.0,1.0,99,0.00,,,0.01,meteohub,2013-01-14 00:11:00,
2013-01-13 19:16:00,46.2,46.0,30.03,West,266,0.0,1.0,99,0.00,,,0.01,meteohub,2013-01-14 00:16:00,
2013-01-13 19:21:00,46.2,46.0,30.02,West,266,0.0,1.0,99,0.00,,,0.01,meteohub,2013-01-14 00:21:00,
2013-01-13 19:26:00,46.2,46.0,30.03,West,266,0.0,1.0,99,0.00,,,0.01,meteohub,2013-01-14 00:26:00,
2013-01-13 19:31:00,46.2,46.0,30.02,West,266,0.0,1.0,99,0.00,,,0.01,meteohub,2013-01-14 00:31:00,
2013-01-13 19:36:00,46.2,46.0,30.02,West,266,0.0,0.0,99,0.00,,,0.01,meteohub,2013-01-14 00:36:00,
2013-01-13 19:41:00,46.2,46.0,30.02,West,266,0.0,0.0,99,0.00,,,0.01,meteohub,2013-01-14 00:41:00,
2013-01-13 19:46:00,46.2,46.0,30.02,West,266,0.0,0.0,99,0.00,,,0.01,meteohub,2013-01-14 00:46:00,
2013-01-13 19:51:00,46.2,46.0,30.02,West,266,0.0,0.0,99,0.00,,,0.01,meteohub,2013-01-14 00:51:00,
2013-01-13 19:56:00,46.2,46.0,30.03,West,266,0.0,0.0,99,0.00,,,0.01,meteohub,2013-01-14 00:56:00,
2013-01-13 20:01:00,46.0,45.9,30.02,West,266,0.0,0.0,99,0.00,,,0.01,meteohub,2013-01-14 01:01:00,
2013-01-13 20:06:00,46.0,45.9,30.03,West,266,0.0,0.0,99,0.00,,,0.01,meteohub,2013-01-14 01:06:00,
2013-01-13 20:11:00,46.0,45.9,30.03,West,266,0.0,0.0,99,0.00,,,0.01,meteohub,2013-01-14 01:11:00,
2013-01-13 20:16:00,46.2,46.0,30.02,West,266,0.0,0.0,99,0.00,,,0.01,meteohub,2013-01-14 01:16:00,
2013-01-13 20:21:00,46.2,46.0,30.02,West,266,0.0,0.0,99,0.00,,,0.01,meteohub,2013-01-14 01:21:00,
2013-01-13 20:26:00,46.2,46.0,30.03,West,266,0.0,0.0,99,0.00,,,0.01,meteohub,2013-01-14 01:26:00,
2013-01-13 20:31:00,46.2,46.0,30.02,West,266,0.0,0.0,99,0.00,,,0.01,meteohub,2013-01-14 01:31:00,
2013-01-13 20:36:00,46.2,46.0,30.03,West,266,0.0,0.0,99,0.00,,,0.01,meteohub,2013-01-14 01:36:00,
2013-01-13 20:41:00,46.0,45.9,30.02,West,266,0.0,0.0,99,0.00,,,0.01,meteohub,2013-01-14 01:41:00,
2013-01-13 20:46:00,46.2,46.0,30.01,West,266,0.0,0.0,99,0.00,,,0.01,meteohub,2013-01-14 01:46:00,
2013-01-13 20:51:00,46.2,46.0,30.01,West,266,0.0,0.0,99,0.00,,,0.01,meteohub,2013-01-14 01:51:00,
2013-01-13 20:56:00,46.0,45.9,30.01,West,266,0.0,0.0,99,0.00,,,0.01,meteohub,2013-01-14 01:56:00,
2013-01-13 21:01:00,46.0,45.9,30.02,West,266,0.0,0.0,99,0.00,,,0.01,meteohub,2013-01-14 02:01:00,
2013-01-13 21:06:00,46.0,45.9,30.02,West,266,0.0,0.0,99,0.00,,,0.01,meteohub,2013-01-14 02:06:00,
2013-01-13 21:11:00,46.0,45.9,30.01,West,266,0.0,0.0,99,0.00,,,0.01,meteohub,2013-01-14 02:11:00,
2013-01-13 21:16:00,46.0,45.9,30.01,West,266,0.0,0.0,99,0.00,,,0.01,meteohub,2013-01-14 02:16:00,
2013-01-13 21:21:00,46.0,45.9,30.01,West,266,0.0,0.0,99,0.00,,,0.01,meteohub,2013-01-14 02:21:00,
2013-01-13 21:26:00,46.0,45.9,30.01,West,266,0.0,0.0,99,0.00,,,0.01,meteohub,2013-01-14 02:26:00,
2013-01-13 21:31:00,46.0,45.9,30.00,West,266,0.0,0.0,99,0.00,,,0.01,meteohub,2013-01-14 02:31:00,
2013-01-13 21:36:00,46.0,45.9,30.00,West,266,0.0,0.0,99,0.00,,,0.01,meteohub,2013-01-14 02:36:00,
2013-01-13 21:41:00,46.0,45.9,30.01,West,266,0.0,0.0,99,0.00,,,0.01,meteohub,2013-01-14 02:41:00,
2013-01-13 21:46:00,46.0,45.9,30.01,West,266,0.0,0.0,99,0.00,,,0.01,meteohub,2013-01-14 02:46:00,
2013-01-13 21:51:00,46.0,45.9,30.00,West,266,0.0,0.0,99,0.00,,,0.01,meteohub,2013-01-14 02:51:00,
2013-01-13 21:56:00,46.0,45.9,30.00,West,266,0.0,0.0,99,0.00,,,0.01,meteohub,2013-01-14 02:56:00,
2013-01-13 22:01:00,46.0,45.9,30.00,West,266,0.0,0.0,99,0.00,,,0.01,meteohub,2013-01-14 03:01:00,
2013-01-13 22:06:00,46.0,45.9,30.01,West,266,0.0,0.0,99,0.00,,,0.01,meteohub,2013-01-14 03:06:00,
2013-01-13 22:11:00,46.0,45.9,30.01,West,266,0.0,0.0,99,0.00,,,0.01,meteohub,2013-01-14 03:11:00,
2013-01-13 22:16:00,46.0,45.9,30.01,West,266,0.0,0.0,99,0.00,,,0.01,meteohub,2013-01-14 03:16:00,
2013-01-13 22:21:00,46.0,45.9,30.01,West,266,0.0,0.0,99,0.00,,,0.01,meteohub,2013-01-14 03:21:00,
2013-01-13 22:26:00,46.0,45.9,30.01,West,266,0.0,0.0,99,0.00,,,0.01,meteohub,2013-01-14 03:26:00,
2013-01-13 22:31:00,46.0,45.9,30.01,West,266,0.0,0.0,99,0.00,,,0.01,meteohub,2013-01-14 03:31:00,
2013-01-13 22:36:00,46.0,45.9,30.01,West,266,0.0,0.0,99,0.00,,,0.01,meteohub,2013-01-14 03:36:00,
2013-01-13 22:41:00,46.0,45.9,30.01,West,266,0.0,0.0,99,0.00,,,0.01,meteohub,2013-01-14 03:41:00,
2013-01-13 22:46:00,46.0,45.9,30.01,West,266,0.0,0.0,99,0.00,,,0.01,meteohub,2013-01-14 03:46:00,
2013-01-13 22:51:00,46.0,45.9,30.01,West,265,0.0,0.0,99,0.00,,,0.01,meteohub,2013-01-14 03:51:00,
2013-01-13 22:56:00,46.0,45.9,30.01,West,266,0.0,0.0,99,0.00,,,0.01,meteohub,2013-01-14 03:56:00,
2013-01-13 23:01:00,46.2,46.0,30.01,West,266,0.0,0.0,99,0.00,,,0.01,meteohub,2013-01-14 04:01:00,
2013-01-13 23:06:00,46.2,46.0,30.00,West,266,0.0,0.0,99,0.00,,,0.01,meteohub,2013-01-14 04:06:00,
2013-01-13 23:10:00,46.2,46.0,30.00,West,266,0.0,0.0,99,0.00,,,0.01,meteohub,2013-01-14 04:10:00,
2013-01-13 23:15:00,46.4,46.2,30.00,West,266,0.0,0.0,99,0.01,,,0.02,meteohub,2013-01-14 04:15:00,
2013-01-13 23:20:00,46.4,46.2,30.00,West,266,0.0,0.0,99,0.01,,,0.02,meteohub,2013-01-14 04:20:00,
2013-01-13 23:25:00,46.4,46.2,30.01,West,266,0.0,0.0,99,0.01,,,0.02,meteohub,2013-01-14 04:25:00,
2013-01-13 23:30:00,46.6,46.4,30.00,West,266,0.0,0.0,99,0.01,,,0.02,meteohub,2013-01-14 04:30:00,
2013-01-13 23:35:00,46.4,46.2,30.00,West,266,0.0,0.0,99,0.01,,,0.02,meteohub,2013-01-14 04:35:00,
2013-01-13 23:41:00,46.4,46.2,30.00,West,266,0.0,0.0,99,0.01,,,0.02,meteohub,2013-01-14 04:41:00,
2013-01-13 23:46:00,46.4,46.2,30.00,West,266,0.0,0.0,99,0.01,,,0.02,meteohub,2013-01-14 04:46:00,
2013-01-13 23:51:00,46.6,46.4,30.00,West,266,0.0,0.0,99,0.01,,,0.02,meteohub,2013-01-14 04:51:00,
2013-01-13 23:56:00,46.6,46.4,30.00,West,266,0.0,0.0,99,0.01,,,0.02,meteohub,2013-01-14 04:56:00,